BIO weather

Bilbao Airport
Bilbao, Basque Country, Spain

Public forecast

Using degrees Celsius for public forecast. Weather courtesy of forecast.io.

Current aviation weather report (METAR) for Bilbao Airport

Retrieved 2019/10/19 00:30 UTC (9 minutes ago):

LEBB 190030Z AUTO VRB03KT CAVOK 18/11 Q1009

Aviation forecast (TAF) for Bilbao Airport

Retrieved 2019-10-19 00:27 UTC (12 minutes ago):

TAF LEBB 182300Z 1900/1924 20008KT 9999 SCT050 TX21/1912Z TN12/1924Z PROB40 TEMPO 1900/1903 RA PROB40 TEMPO 1912/1918 30010KT PROB40 TEMPO 1912/1918 4500 -RA BKN014 TEMPO 1918/1924 3000 RA BKN014